createdAt,value
2023-01-19T00:01:49.039Z,95.21
2023-01-19T00:04:18.289Z,95.24
2023-01-19T00:06:47.922Z,95.50
2023-01-19T00:09:17.239Z,95.67
2023-01-19T00:11:46.559Z,95.72
2023-01-19T00:14:16.157Z,95.79
2023-01-19T00:16:45.381Z,96.00
2023-01-19T00:19:15.019Z,96.09
2023-01-19T00:21:44.250Z,95.88
2023-01-19T00:24:14.346Z,95.36
2023-01-19T00:26:43.644Z,95.36
2023-01-19T00:29:13.597Z,95.29
2023-01-19T00:31:43.039Z,95.49
2023-01-19T00:34:12.379Z,95.07
2023-01-19T00:36:41.575Z,95.26
2023-01-19T00:39:11.025Z,95.31
2023-01-19T00:41:58.351Z,94.88
2023-01-19T00:44:27.599Z,95.05
2023-01-19T00:46:56.826Z,95.05
2023-01-19T00:49:26.204Z,94.77
2023-01-19T00:51:55.413Z,94.94
2023-01-19T00:54:26.887Z,95.60
2023-01-19T00:56:55.697Z,95.50
2023-01-19T00:59:25.926Z,95.61
2023-01-19T01:01:55.387Z,95.44
2023-01-19T01:04:24.899Z,95.13
2023-01-19T01:06:54.093Z,95.34
2023-01-19T01:09:24.352Z,95.23
2023-01-19T01:11:53.541Z,94.93
2023-01-19T01:14:23.744Z,94.99
2023-01-19T01:16:53.120Z,95.43
2023-01-19T01:19:22.432Z,95.21
2023-01-19T01:21:51.892Z,95.57
2023-01-19T01:24:21.109Z,95.55
2023-01-19T01:26:50.519Z,95.45
2023-01-19T01:29:19.746Z,95.22
2023-01-19T01:31:48.978Z,95.66
2023-01-19T01:34:18.255Z,95.74
2023-01-19T01:36:48.132Z,95.86
2023-01-19T01:39:17.338Z,95.70
2023-01-19T01:41:46.777Z,95.99
2023-01-19T01:44:51.684Z,96.29
2023-01-19T01:47:26.669Z,96.40
2023-01-19T01:50:05.152Z,96.70
2023-01-19T01:52:36.317Z,96.30
2023-01-19T01:55:08.517Z,95.53
2023-01-19T01:57:40.700Z,94.60
2023-01-19T02:00:11.189Z,94.37
2023-01-19T02:02:54.487Z,94.20
2023-01-19T02:05:33.803Z,94.58
2023-01-19T02:08:36.193Z,94.88
2023-01-19T02:11:24.451Z,94.92
2023-01-19T02:13:54.220Z,94.61
2023-01-19T02:16:23.734Z,94.11
2023-01-19T02:18:53.159Z,94.58
2023-01-19T02:21:31.705Z,94.41
2023-01-19T02:24:03.412Z,95.17
2023-01-19T02:26:40.797Z,95.01
2023-01-19T02:29:12.791Z,94.87
2023-01-19T02:31:43.218Z,94.76
2023-01-19T02:34:15.339Z,94.39
2023-01-19T02:36:53.926Z,94.81
2023-01-19T02:39:29.062Z,95.16
2023-01-19T02:42:10.789Z,95.03
2023-01-19T02:44:41.441Z,95.34
2023-01-19T02:47:10.703Z,95.59
2023-01-19T02:49:40.299Z,95.40
2023-01-19T02:52:17.149Z,95.56
2023-01-19T02:55:01.475Z,95.89
2023-01-19T02:57:36.455Z,95.90
2023-01-19T03:00:15.352Z,96.59
2023-01-19T03:02:53.685Z,96.51
2023-01-19T03:05:44.370Z,96.75
2023-01-19T03:08:19.757Z,96.92
2023-01-19T03:11:06.930Z,97.51
2023-01-19T03:13:48.432Z,97.83
2023-01-19T03:16:27.498Z,97.89
2023-01-19T03:19:08.392Z,97.99
2023-01-19T03:21:39.142Z,98.23
2023-01-19T03:24:09.607Z,98.50
2023-01-19T03:26:45.002Z,98.69
2023-01-19T03:29:15.399Z,98.93
2023-01-19T03:31:46.888Z,98.91
2023-01-19T03:34:16.777Z,98.93
2023-01-19T03:36:48.674Z,99.11
2023-01-19T03:39:21.430Z,99.17
2023-01-19T03:41:58.801Z,99.13
2023-01-19T03:44:29.951Z,99.18
2023-01-19T03:47:00.330Z,99.29
2023-01-19T03:49:33.858Z,99.32
2023-01-19T03:52:03.060Z,99.38
2023-01-19T03:54:33.011Z,99.48
2023-01-19T03:57:02.230Z,99.67
2023-01-19T03:59:31.457Z,99.85
2023-01-19T04:02:01.040Z,99.96
2023-01-19T04:04:30.338Z,100.00
2023-01-19T04:06:59.561Z,100.00
2023-01-19T04:09:29.314Z,100.00
2023-01-19T04:11:58.543Z,99.91
2023-01-19T04:14:27.947Z,99.73
2023-01-19T04:16:57.175Z,99.40
2023-01-19T04:19:26.747Z,98.65
2023-01-19T04:21:56.851Z,97.95
2023-01-19T04:24:28.037Z,97.79
2023-01-19T04:26:57.357Z,97.92
2023-01-19T04:29:26.565Z,98.14
2023-01-19T04:31:55.783Z,98.44
2023-01-19T04:34:25.345Z,98.76
2023-01-19T04:36:55.967Z,99.04
2023-01-19T04:39:25.310Z,99.12
2023-01-19T04:41:56.286Z,99.16
2023-01-19T04:44:25.636Z,98.97
2023-01-19T04:46:55.027Z,98.55
2023-01-19T04:49:24.460Z,96.66
2023-01-19T04:51:56.677Z,96.01
2023-01-19T04:54:27.632Z,94.84
2023-01-19T04:56:57.303Z,95.51
2023-01-19T04:59:26.717Z,95.08
2023-01-19T05:01:56.793Z,94.69
2023-01-19T05:04:26.444Z,94.67
2023-01-19T05:06:56.103Z,94.58
2023-01-19T05:09:26.200Z,94.48
2023-01-19T05:11:55.438Z,94.26
2023-01-19T05:14:24.702Z,94.88
2023-01-19T05:16:54.280Z,94.79
2023-01-19T05:19:23.942Z,95.82
2023-01-19T05:21:54.801Z,95.75
2023-01-19T05:24:24.165Z,95.82
2023-01-19T05:26:53.353Z,95.78
2023-01-19T05:29:23.533Z,95.70
2023-01-19T05:31:52.790Z,96.15
2023-01-19T05:34:22.412Z,96.13
2023-01-19T05:36:51.616Z,95.73
2023-01-19T05:39:21.127Z,96.15
2023-01-19T05:41:50.317Z,96.26
2023-01-19T05:44:19.759Z,96.55
2023-01-19T05:46:49.401Z,96.67
2023-01-19T05:49:18.699Z,97.58
2023-01-19T05:51:48.049Z,97.83
2023-01-19T05:54:17.501Z,98.19
2023-01-19T05:56:47.597Z,98.34
2023-01-19T05:59:18.823Z,98.53
2023-01-19T06:01:48.606Z,98.50
2023-01-19T06:04:17.908Z,98.42
2023-01-19T06:06:50.623Z,98.55
2023-01-19T06:09:19.847Z,98.80
2023-01-19T06:11:49.997Z,99.08
2023-01-19T06:14:19.236Z,99.26
2023-01-19T06:16:48.506Z,99.38
2023-01-19T06:19:17.743Z,99.36
2023-01-19T06:21:51.099Z,99.49
2023-01-19T06:24:20.313Z,99.52
2023-01-19T06:26:49.540Z,99.51
2023-01-19T06:29:19.035Z,99.57
2023-01-19T06:31:48.497Z,99.59
2023-01-19T06:34:18.211Z,99.65
2023-01-19T06:36:47.879Z,99.72
2023-01-19T06:39:17.500Z,99.86
2023-01-19T06:41:47.313Z,99.89
2023-01-19T06:44:17.002Z,99.93
2023-01-19T06:46:46.429Z,100.00
2023-01-19T06:49:15.912Z,100.00
2023-01-19T06:51:45.513Z,100.00
2023-01-19T06:54:15.039Z,100.00
2023-01-19T06:56:44.265Z,100.00
2023-01-19T06:59:13.517Z,100.00
2023-01-19T07:01:42.902Z,100.00
2023-01-19T07:04:14.271Z,100.00
2023-01-19T07:06:43.872Z,100.00
2023-01-19T07:09:15.050Z,100.00
2023-01-19T07:11:44.244Z,100.00
2023-01-19T07:14:13.876Z,100.00
2023-01-19T07:16:43.221Z,100.00
2023-01-19T07:19:14.237Z,100.00
2023-01-19T07:21:43.767Z,100.00
2023-01-19T07:24:13.498Z,100.00
2023-01-19T07:26:44.678Z,100.00
2023-01-19T07:29:13.975Z,100.00
2023-01-19T07:31:43.429Z,100.00
2023-01-19T07:34:12.804Z,100.00
2023-01-19T07:36:42.706Z,100.00
2023-01-19T07:39:11.947Z,100.00
2023-01-19T07:41:41.446Z,100.00
2023-01-19T07:44:10.934Z,100.00
2023-01-19T07:46:41.540Z,100.00
2023-01-19T07:49:11.590Z,100.00
2023-01-19T07:51:41.129Z,99.81
2023-01-19T07:54:10.627Z,99.48
2023-01-19T07:56:40.575Z,98.81
2023-01-19T07:59:11.099Z,98.67
2023-01-19T08:01:41.738Z,97.90
2023-01-19T08:04:11.301Z,97.87
2023-01-19T08:06:41.698Z,97.68
2023-01-19T08:09:11.751Z,97.59
2023-01-19T08:11:41.976Z,97.44
2023-01-19T08:14:11.830Z,96.73
2023-01-19T08:16:41.425Z,96.87
2023-01-19T08:19:10.643Z,96.72
2023-01-19T08:21:40.548Z,96.78
2023-01-19T08:24:12.259Z,96.81
2023-01-19T08:26:41.878Z,96.83
2023-01-19T08:29:11.155Z,96.65
2023-01-19T08:31:40.627Z,96.88
2023-01-19T08:34:10.011Z,97.21
2023-01-19T08:36:39.261Z,96.99
2023-01-19T08:39:08.595Z,97.06
2023-01-19T08:41:37.911Z,97.18
2023-01-19T08:44:07.216Z,97.37
2023-01-19T08:46:36.508Z,97.53
2023-01-19T08:49:05.990Z,97.70
2023-01-19T08:51:35.214Z,97.84
2023-01-19T08:54:04.515Z,98.05
2023-01-19T08:56:33.820Z,97.96
2023-01-19T08:59:09.997Z,98.13
2023-01-19T09:01:34.185Z,98.26
2023-01-19T09:04:03.674Z,98.02
2023-01-19T09:06:33.005Z,97.89
2023-01-19T09:09:02.203Z,97.88
2023-01-19T09:11:31.887Z,97.58
2023-01-19T09:14:01.099Z,97.63
2023-01-19T09:16:30.478Z,97.57
2023-01-19T09:18:59.699Z,97.61
2023-01-19T09:21:29.404Z,97.16
2023-01-19T09:23:58.689Z,97.15
2023-01-19T09:26:28.310Z,96.76
2023-01-19T09:28:58.006Z,96.25
2023-01-19T09:31:27.683Z,95.92
2023-01-19T09:33:56.941Z,95.72
2023-01-19T09:36:26.466Z,94.53
2023-01-19T09:38:55.691Z,94.78
2023-01-19T09:41:26.588Z,92.98
2023-01-19T09:44:01.068Z,91.42
2023-01-19T09:46:37.129Z,89.95
2023-01-19T09:49:31.134Z,88.77
2023-01-19T09:52:00.440Z,86.94
2023-01-19T09:54:34.727Z,85.57
2023-01-19T09:57:04.158Z,84.46
2023-01-19T09:59:34.556Z,83.26
2023-01-19T10:02:24.713Z,82.47
2023-01-19T10:04:57.126Z,82.74
2023-01-19T10:08:03.514Z,80.75
2023-01-19T10:10:34.025Z,79.60
2023-01-19T10:13:21.606Z,75.96
2023-01-19T10:16:29.417Z,75.81
2023-01-19T10:19:21.551Z,74.76
2023-01-19T10:21:52.095Z,74.17
2023-01-19T10:24:40.014Z,75.18
2023-01-19T10:27:21.837Z,74.38
2023-01-19T10:29:51.400Z,72.75
2023-01-19T10:32:30.290Z,68.09
2023-01-19T10:35:01.043Z,69.32
2023-01-19T10:37:38.227Z,69.02
2023-01-19T10:40:14.099Z,69.69
2023-01-19T10:42:43.588Z,71.49
2023-01-19T10:45:24.936Z,69.53
2023-01-19T10:47:56.120Z,70.15
2023-01-19T10:50:29.039Z,71.96
2023-01-19T10:53:04.685Z,69.90
2023-01-19T10:55:39.113Z,67.48
2023-01-19T10:58:11.529Z,68.71
2023-01-19T11:00:42.871Z,68.48
2023-01-19T11:03:23.398Z,69.54
2023-01-19T11:05:53.051Z,70.20
2023-01-19T11:08:24.770Z,68.43
2023-01-19T11:11:04.613Z,68.47
2023-01-19T11:13:34.076Z,66.40
2023-01-19T11:16:12.242Z,65.59
2023-01-19T11:18:41.485Z,66.05
2023-01-19T11:21:15.969Z,69.22
2023-01-19T11:23:51.138Z,67.85
2023-01-19T11:26:35.420Z,68.90
2023-01-19T11:29:05.200Z,67.73
2023-01-19T11:31:36.204Z,70.75
2023-01-19T11:34:08.731Z,71.12
2023-01-19T11:36:38.795Z,68.75
2023-01-19T11:39:23.638Z,67.20
2023-01-19T11:41:57.216Z,64.80
2023-01-19T11:44:30.020Z,67.97
2023-01-19T11:47:01.589Z,69.26
2023-01-19T11:49:49.567Z,69.57
2023-01-19T11:52:36.054Z,68.06
2023-01-19T11:55:08.553Z,67.42
2023-01-19T11:57:38.257Z,65.85
2023-01-19T12:00:10.756Z,67.93
2023-01-19T12:02:47.821Z,69.06
2023-01-19T12:05:19.200Z,70.14
2023-01-19T12:07:49.274Z,72.90
2023-01-19T12:10:27.654Z,75.70
2023-01-19T12:12:58.075Z,76.94
2023-01-19T12:15:38.354Z,78.20
2023-01-19T12:18:10.242Z,79.49
2023-01-19T12:20:41.539Z,78.17
2023-01-19T12:23:26.086Z,77.92
2023-01-19T12:26:04.267Z,79.10
2023-01-19T12:28:36.998Z,78.07
2023-01-19T12:31:08.530Z,78.54
2023-01-19T12:33:39.622Z,80.13
2023-01-19T12:36:21.031Z,81.06
2023-01-19T12:38:54.852Z,78.60
2023-01-19T12:41:35.628Z,77.99
2023-01-19T12:44:18.507Z,75.81
2023-01-19T12:46:58.681Z,74.96
2023-01-19T12:49:35.820Z,73.15
2023-01-19T12:52:35.881Z,74.08
2023-01-19T12:55:17.312Z,72.87
2023-01-19T12:57:55.780Z,74.09
2023-01-19T13:00:28.198Z,75.78
2023-01-19T13:03:06.908Z,75.08
2023-01-19T13:05:47.533Z,75.14
2023-01-19T13:08:19.346Z,73.81
2023-01-19T13:11:05.074Z,73.13
2023-01-19T13:13:40.248Z,74.74
2023-01-19T13:16:27.628Z,75.07
2023-01-19T13:19:13.184Z,73.51
2023-01-19T13:21:45.181Z,73.86
2023-01-19T13:24:16.951Z,75.24
2023-01-19T13:26:57.887Z,73.38
2023-01-19T13:29:38.227Z,72.62
2023-01-19T13:32:19.497Z,73.02
2023-01-19T13:34:51.876Z,71.96
2023-01-19T13:37:22.931Z,72.11
2023-01-19T13:39:54.485Z,70.78
2023-01-19T13:42:37.753Z,70.15
2023-01-19T13:45:19.128Z,73.16
2023-01-19T13:47:49.573Z,73.09
2023-01-19T13:50:24.540Z,71.73
2023-01-19T13:52:55.671Z,70.49
2023-01-19T13:55:29.390Z,72.03
2023-01-19T13:57:59.007Z,72.61
2023-01-19T14:00:33.432Z,76.40
2023-01-19T14:03:07.704Z,78.42
2023-01-19T14:05:38.764Z,78.89
2023-01-19T14:08:15.042Z,79.76
2023-01-19T14:10:50.780Z,79.04
2023-01-19T14:13:22.527Z,79.61
2023-01-19T14:15:55.139Z,79.11
2023-01-19T14:18:30.188Z,78.15
2023-01-19T14:21:09.202Z,77.82
2023-01-19T14:23:52.917Z,78.31
2023-01-19T14:26:46.895Z,78.99
2023-01-19T14:29:32.762Z,79.91
2023-01-19T14:32:05.014Z,80.73
2023-01-19T14:34:44.329Z,79.84
2023-01-19T14:37:22.783Z,79.61
2023-01-19T14:40:07.973Z,78.38
2023-01-19T14:42:54.773Z,78.30
2023-01-19T14:45:29.879Z,75.87
2023-01-19T14:48:01.550Z,75.14
2023-01-19T14:53:36.753Z,70.42
2023-01-19T14:56:07.769Z,68.51
2023-01-19T14:58:37.347Z,67.74
2023-01-19T15:01:06.959Z,66.21
2023-01-19T15:03:45.445Z,66.37
2023-01-19T15:06:19.451Z,66.72
2023-01-19T15:08:50.349Z,66.39
2023-01-19T15:11:24.690Z,66.62
2023-01-19T15:13:55.795Z,66.19
2023-01-19T15:16:28.001Z,67.14
2023-01-19T15:18:57.344Z,67.24
2023-01-19T15:21:27.042Z,67.40
2023-01-19T15:23:58.301Z,67.98
2023-01-19T15:26:28.416Z,69.13
2023-01-19T15:28:57.774Z,68.90
2023-01-19T15:31:27.948Z,69.37
2023-01-19T15:33:57.444Z,69.37
2023-01-19T15:36:26.894Z,69.65
2023-01-19T15:38:57.401Z,70.45
2023-01-19T15:41:29.934Z,69.87
2023-01-19T15:44:00.059Z,71.01
2023-01-19T15:46:29.344Z,72.53
2023-01-19T15:48:58.634Z,71.91
2023-01-19T15:51:28.464Z,73.44
2023-01-19T15:53:58.164Z,76.20
2023-01-19T16:00:13.453Z,78.98
2023-01-19T16:02:43.090Z,79.44
2023-01-19T16:05:13.147Z,78.68
2023-01-19T16:07:43.016Z,79.95
2023-01-19T16:10:12.773Z,79.77
2023-01-19T16:12:41.976Z,80.61
2023-01-19T16:15:12.126Z,81.20
2023-01-19T16:17:41.524Z,81.31
2023-01-19T16:20:14.471Z,80.99
2023-01-19T16:22:42.680Z,81.09
2023-01-19T16:25:13.448Z,82.21
2023-01-19T16:27:42.672Z,82.59
2023-01-19T16:30:13.333Z,83.66
2023-01-19T16:32:42.636Z,84.95
2023-01-19T16:35:12.817Z,85.69
2023-01-19T16:37:42.347Z,86.34
2023-01-19T16:40:12.760Z,87.46
2023-01-19T16:42:42.055Z,87.95
2023-01-19T16:45:11.589Z,88.89
2023-01-19T16:47:41.170Z,90.87
2023-01-19T16:50:12.783Z,91.11
2023-01-19T16:52:42.395Z,91.93
2023-01-19T16:55:12.032Z,92.50
2023-01-19T16:57:41.470Z,92.73
2023-01-19T17:00:11.836Z,93.11
2023-01-19T17:02:42.685Z,93.35
2023-01-19T17:05:12.613Z,93.60
2023-01-19T17:07:42.014Z,93.61
2023-01-19T17:10:12.267Z,93.46
2023-01-19T17:12:41.737Z,93.61
2023-01-19T17:15:12.113Z,93.84
2023-01-19T17:17:41.337Z,94.11
2023-01-19T17:20:12.113Z,94.19
2023-01-19T17:22:41.497Z,94.26
2023-01-19T17:25:11.362Z,94.33
2023-01-19T17:27:40.592Z,94.47
2023-01-19T17:30:11.508Z,94.69
2023-01-19T17:32:42.561Z,94.67
2023-01-19T17:35:12.352Z,95.03
2023-01-19T17:37:41.575Z,95.05
2023-01-19T17:40:12.331Z,95.46
2023-01-19T17:42:42.461Z,95.60
2023-01-19T17:45:12.546Z,95.65
2023-01-19T17:47:41.838Z,95.74
2023-01-19T17:50:11.907Z,95.54
2023-01-19T17:52:41.330Z,95.51
2023-01-19T17:55:11.879Z,95.54
2023-01-19T17:57:41.118Z,95.58
2023-01-19T18:00:12.042Z,95.65
2023-01-19T18:02:40.952Z,95.90
2023-01-19T18:05:12.616Z,95.93
2023-01-19T18:07:41.894Z,95.96
2023-01-19T18:10:12.265Z,96.00
2023-01-19T18:12:42.172Z,96.06
2023-01-19T18:15:14.336Z,96.02
2023-01-19T18:17:44.030Z,96.05
2023-01-19T18:20:14.113Z,95.78
2023-01-19T18:22:43.935Z,96.41
2023-01-19T18:25:13.366Z,96.87
2023-01-19T18:27:43.055Z,96.70
2023-01-19T18:30:14.164Z,96.39
2023-01-19T18:32:44.035Z,96.14
2023-01-19T18:35:13.330Z,96.13
2023-01-19T18:37:42.650Z,96.07
2023-01-19T18:40:13.364Z,96.14
2023-01-19T18:42:43.421Z,96.04
2023-01-19T18:45:13.276Z,96.23
2023-01-19T18:47:42.658Z,96.31
2023-01-19T18:50:14.708Z,96.53
2023-01-19T18:52:46.027Z,96.60
2023-01-19T18:55:15.811Z,96.90
2023-01-19T18:57:45.248Z,96.90
2023-01-19T19:00:15.989Z,96.91
2023-01-19T19:02:45.913Z,97.00
2023-01-19T19:05:15.378Z,96.91
2023-01-19T19:07:45.068Z,96.70
2023-01-19T19:10:14.935Z,96.74
2023-01-19T19:12:44.422Z,97.09
2023-01-19T19:15:14.123Z,97.01
2023-01-19T19:17:43.845Z,97.04
2023-01-19T19:20:13.980Z,96.94
2023-01-19T19:22:44.089Z,97.02
2023-01-19T19:25:13.346Z,97.06
2023-01-19T19:27:44.538Z,97.28
2023-01-19T19:30:15.019Z,97.40
2023-01-19T19:32:44.479Z,97.45
2023-01-19T19:35:15.302Z,97.45
2023-01-19T19:37:45.401Z,97.66
2023-01-19T19:40:15.050Z,97.75
2023-01-19T19:42:44.398Z,97.73
2023-01-19T19:45:14.958Z,97.85
2023-01-19T19:47:44.785Z,97.72
2023-01-19T19:50:14.777Z,97.45
2023-01-19T19:52:44.657Z,97.21
2023-01-19T19:55:14.230Z,97.05
2023-01-19T19:57:43.514Z,97.04
2023-01-19T20:00:13.490Z,96.87
2023-01-19T20:02:43.329Z,96.65
2023-01-19T20:05:13.426Z,96.52
2023-01-19T20:07:48.285Z,96.66
2023-01-19T20:10:18.162Z,96.45
2023-01-19T20:12:47.724Z,96.57
2023-01-19T20:15:17.012Z,96.61
2023-01-19T20:17:46.618Z,96.68
2023-01-19T20:20:15.988Z,96.89
2023-01-19T20:22:45.276Z,96.81
2023-01-19T20:25:16.519Z,96.86
2023-01-19T20:27:47.253Z,96.95
2023-01-19T20:30:18.125Z,96.83
2023-01-19T20:32:48.063Z,96.69
2023-01-19T20:35:17.516Z,96.92
2023-01-19T20:37:46.959Z,97.06
2023-01-19T20:40:17.107Z,97.18
2023-01-19T20:42:46.837Z,97.42
2023-01-19T20:45:17.775Z,97.67
2023-01-19T20:47:47.485Z,97.93
2023-01-19T20:50:16.746Z,98.01
2023-01-19T20:52:46.383Z,98.27
2023-01-19T20:55:15.917Z,98.34
2023-01-19T20:57:45.152Z,98.30
2023-01-19T21:00:14.808Z,98.22
2023-01-19T21:02:44.119Z,98.24
2023-01-19T21:05:14.016Z,98.28
2023-01-19T21:07:43.616Z,98.32
2023-01-19T21:10:12.931Z,98.46
2023-01-19T21:12:42.518Z,98.48
2023-01-19T21:15:12.701Z,98.54
2023-01-19T21:17:44.984Z,98.68
2023-01-19T21:20:13.963Z,98.71
2023-01-19T21:22:43.445Z,98.78
2023-01-19T21:25:13.100Z,98.85
2023-01-19T21:27:42.478Z,98.93
2023-01-19T21:30:12.349Z,98.97
2023-01-19T21:32:41.952Z,98.92
2023-01-19T21:35:11.814Z,98.76
2023-01-19T21:37:41.541Z,98.68
2023-01-19T21:40:12.439Z,98.69
2023-01-19T21:42:41.918Z,98.61
2023-01-19T21:45:11.631Z,98.63
2023-01-19T21:47:41.240Z,98.57
2023-01-19T21:50:11.350Z,98.53
2023-01-19T21:52:40.879Z,98.47
2023-01-19T21:55:10.380Z,98.15
2023-01-19T21:57:40.049Z,98.04
2023-01-19T22:00:10.175Z,97.85
2023-01-19T22:02:39.661Z,97.94
2023-01-19T22:05:09.617Z,98.09
2023-01-19T22:07:39.224Z,98.09
2023-01-19T22:10:10.197Z,97.99
2023-01-19T22:12:40.333Z,97.87
2023-01-19T22:15:10.859Z,97.94
2023-01-19T22:17:40.144Z,97.92
2023-01-19T22:20:10.690Z,97.91
2023-01-19T22:22:39.888Z,98.08
2023-01-19T22:25:09.581Z,98.22
2023-01-19T22:27:38.877Z,98.23
2023-01-19T22:30:09.184Z,98.27
2023-01-19T22:32:38.382Z,98.37
2023-01-19T22:35:07.911Z,98.56
2023-01-19T22:37:37.690Z,98.65
2023-01-19T22:40:07.791Z,98.82
2023-01-19T22:42:36.997Z,98.99
2023-01-19T22:45:06.891Z,99.07
2023-01-19T22:47:36.157Z,98.97
2023-01-19T22:50:05.918Z,98.91
2023-01-19T22:52:35.237Z,99.11
2023-01-19T22:55:04.941Z,99.13
2023-01-19T22:57:36.179Z,99.22
2023-01-19T23:00:08.803Z,99.24
2023-01-19T23:02:38.039Z,99.30
2023-01-19T23:05:08.488Z,99.21
2023-01-19T23:07:37.905Z,99.19
2023-01-19T23:10:08.535Z,99.19
2023-01-19T23:12:37.768Z,99.27
2023-01-19T23:15:08.460Z,99.37
2023-01-19T23:17:39.899Z,99.50
2023-01-19T23:20:10.626Z,99.55
2023-01-19T23:22:40.396Z,99.56
2023-01-19T23:25:10.658Z,99.66
2023-01-19T23:27:40.306Z,99.73
2023-01-19T23:30:10.918Z,99.74
2023-01-19T23:32:40.425Z,99.81
2023-01-19T23:35:11.059Z,99.85
2023-01-19T23:37:40.347Z,99.95
2023-01-19T23:40:11.254Z,99.96
2023-01-19T23:42:40.479Z,99.98
2023-01-19T23:45:10.699Z,100.00
2023-01-19T23:47:41.796Z,100.00
2023-01-19T23:50:12.076Z,100.00
2023-01-19T23:52:41.365Z,100.00
2023-01-19T23:55:11.441Z,100.00
2023-01-19T23:57:40.945Z,100.00
